sensor_id;sensor_type;location;lat;lon;timestamp;P1;durP1;ratioP1;P2;durP2;ratioP2
10269;SDS011;5180;50.832;5.390;2022-10-15T00:02:08;20.70;;;18.45;;
10269;SDS011;5180;50.832;5.390;2022-10-15T00:04:34;21.25;;;19.15;;
10269;SDS011;5180;50.832;5.390;2022-10-15T00:07:00;20.88;;;18.73;;
10269;SDS011;5180;50.832;5.390;2022-10-15T00:09:26;20.20;;;18.20;;
10269;SDS011;5180;50.832;5.390;2022-10-15T00:11:52;21.95;;;18.08;;
10269;SDS011;5180;50.832;5.390;2022-10-15T00:14:18;19.83;;;17.85;;
10269;SDS011;5180;50.832;5.390;2022-10-15T00:16:43;21.13;;;19.13;;
10269;SDS011;5180;50.832;5.390;2022-10-15T00:19:09;22.27;;;20.17;;
10269;SDS011;5180;50.832;5.390;2022-10-15T00:21:35;21.95;;;19.92;;
10269;SDS011;5180;50.832;5.390;2022-10-15T00:24:01;25.20;;;22.83;;
10269;SDS011;5180;50.832;5.390;2022-10-15T00:26:28;24.48;;;22.17;;
10269;SDS011;5180;50.832;5.390;2022-10-15T00:28:55;24.83;;;22.42;;
10269;SDS011;5180;50.832;5.390;2022-10-15T00:31:23;23.15;;;21.08;;
10269;SDS011;5180;50.832;5.390;2022-10-15T00:33:52;24.40;;;22.23;;
10269;SDS011;5180;50.832;5.390;2022-10-15T00:36:20;23.10;;;20.48;;
10269;SDS011;5180;50.832;5.390;2022-10-15T00:38:59;22.25;;;20.08;;
10269;SDS011;5180;50.832;5.390;2022-10-15T00:41:30;20.80;;;18.77;;
10269;SDS011;5180;50.832;5.390;2022-10-15T00:44:02;20.63;;;18.55;;
10269;SDS011;5180;50.832;5.390;2022-10-15T00:46:53;20.30;;;18.08;;
10269;SDS011;5180;50.832;5.390;2022-10-15T00:49:29;21.02;;;18.90;;
10269;SDS011;5180;50.832;5.390;2022-10-15T00:54:42;22.02;;;18.50;;
10269;SDS011;5180;50.832;5.390;2022-10-15T00:57:14;23.80;;;20.17;;
10269;SDS011;5180;50.832;5.390;2022-10-15T00:59:41;25.52;;;22.63;;
10269;SDS011;5180;50.832;5.390;2022-10-15T01:02:11;24.42;;;22.02;;
10269;SDS011;5180;50.832;5.390;2022-10-15T01:04:37;31.38;;;28.48;;
10269;SDS011;5180;50.832;5.390;2022-10-15T01:07:03;39.70;;;36.22;;
10269;SDS011;5180;50.832;5.390;2022-10-15T01:09:28;41.70;;;38.17;;
10269;SDS011;5180;50.832;5.390;2022-10-15T01:11:54;40.60;;;37.30;;
10269;SDS011;5180;50.832;5.390;2022-10-15T01:17:37;32.17;;;29.48;;
10269;SDS011;5180;50.832;5.390;2022-10-15T01:32:25;31.85;;;28.83;;
10269;SDS011;5180;50.832;5.390;2022-10-15T01:37:37;26.02;;;23.42;;
10269;SDS011;5180;50.832;5.390;2022-10-15T01:40:24;24.75;;;22.23;;
10269;SDS011;5180;50.832;5.390;2022-10-15T01:42:56;25.60;;;23.23;;
10269;SDS011;5180;50.832;5.390;2022-10-15T01:45:28;29.13;;;26.58;;
10269;SDS011;5180;50.832;5.390;2022-10-15T01:48:02;28.48;;;26.13;;
10269;SDS011;5180;50.832;5.390;2022-10-15T01:50:31;29.80;;;26.25;;
10269;SDS011;5180;50.832;5.390;2022-10-15T01:52:59;28.45;;;25.85;;
10269;SDS011;5180;50.832;5.390;2022-10-15T01:55:26;29.83;;;27.00;;
10269;SDS011;5180;50.832;5.390;2022-10-15T01:57:54;30.85;;;27.80;;
10269;SDS011;5180;50.832;5.390;2022-10-15T02:00:22;29.00;;;26.25;;
10269;SDS011;5180;50.832;5.390;2022-10-15T02:02:48;26.10;;;23.40;;
10269;SDS011;5180;50.832;5.390;2022-10-15T02:05:19;27.10;;;24.05;;
10269;SDS011;5180;50.832;5.390;2022-10-15T02:07:54;26.70;;;22.48;;
10269;SDS011;5180;50.832;5.390;2022-10-15T02:10:42;25.58;;;22.80;;
10269;SDS011;5180;50.832;5.390;2022-10-15T02:13:31;24.95;;;20.95;;
10269;SDS011;5180;50.832;5.390;2022-10-15T02:19:48;29.77;;;21.38;;
10269;SDS011;5180;50.832;5.390;2022-10-15T02:22:24;22.65;;;20.48;;
10269;SDS011;5180;50.832;5.390;2022-10-15T02:24:57;22.20;;;19.95;;
10269;SDS011;5180;50.832;5.390;2022-10-15T02:27:30;22.23;;;20.08;;
10269;SDS011;5180;50.832;5.390;2022-10-15T02:29:58;20.67;;;18.48;;
10269;SDS011;5180;50.832;5.390;2022-10-15T02:32:27;21.40;;;19.23;;
10269;SDS011;5180;50.832;5.390;2022-10-15T02:34:55;25.27;;;19.27;;
10269;SDS011;5180;50.832;5.390;2022-10-15T02:37:23;22.15;;;19.83;;
10269;SDS011;5180;50.832;5.390;2022-10-15T02:39:51;25.30;;;22.63;;
10269;SDS011;5180;50.832;5.390;2022-10-15T02:42:17;23.67;;;21.42;;
10269;SDS011;5180;50.832;5.390;2022-10-15T02:44:44;25.60;;;22.90;;
10269;SDS011;5180;50.832;5.390;2022-10-15T02:47:10;28.58;;;24.95;;
10269;SDS011;5180;50.832;5.390;2022-10-15T02:49:36;25.88;;;23.17;;
10269;SDS011;5180;50.832;5.390;2022-10-15T02:52:02;27.58;;;24.40;;
10269;SDS011;5180;50.832;5.390;2022-10-15T02:54:28;28.90;;;25.08;;
10269;SDS011;5180;50.832;5.390;2022-10-15T02:56:54;25.48;;;22.38;;
10269;SDS011;5180;50.832;5.390;2022-10-15T02:59:20;26.30;;;21.98;;
10269;SDS011;5180;50.832;5.390;2022-10-15T03:01:46;31.45;;;22.88;;
10269;SDS011;5180;50.832;5.390;2022-10-15T03:04:11;31.63;;;24.08;;
10269;SDS011;5180;50.832;5.390;2022-10-15T03:06:37;29.05;;;26.08;;
10269;SDS011;5180;50.832;5.390;2022-10-15T03:09:03;32.05;;;26.98;;
10269;SDS011;5180;50.832;5.390;2022-10-15T03:11:28;31.35;;;27.35;;
10269;SDS011;5180;50.832;5.390;2022-10-15T03:13:54;32.53;;;27.40;;
10269;SDS011;5180;50.832;5.390;2022-10-15T03:16:20;31.20;;;28.20;;
10269;SDS011;5180;50.832;5.390;2022-10-15T03:18:45;34.30;;;30.42;;
10269;SDS011;5180;50.832;5.390;2022-10-15T03:21:11;39.03;;;34.92;;
10269;SDS011;5180;50.832;5.390;2022-10-15T03:23:37;32.70;;;29.45;;
10269;SDS011;5180;50.832;5.390;2022-10-15T03:26:03;40.28;;;36.47;;
10269;SDS011;5180;50.832;5.390;2022-10-15T03:28:29;42.55;;;38.25;;
10269;SDS011;5180;50.832;5.390;2022-10-15T03:30:54;41.53;;;37.13;;
10269;SDS011;5180;50.832;5.390;2022-10-15T03:33:20;40.33;;;35.97;;
10269;SDS011;5180;50.832;5.390;2022-10-15T03:35:46;38.95;;;34.72;;
10269;SDS011;5180;50.832;5.390;2022-10-15T03:38:11;38.10;;;34.33;;
10269;SDS011;5180;50.832;5.390;2022-10-15T03:40:37;39.58;;;34.58;;
10269;SDS011;5180;50.832;5.390;2022-10-15T03:43:03;37.72;;;30.90;;
10269;SDS011;5180;50.832;5.390;2022-10-15T03:45:28;35.45;;;28.60;;
10269;SDS011;5180;50.832;5.390;2022-10-15T03:47:54;31.88;;;26.50;;
10269;SDS011;5180;50.832;5.390;2022-10-15T03:50:19;35.47;;;30.02;;
10269;SDS011;5180;50.832;5.390;2022-10-15T03:52:45;36.13;;;32.22;;
10269;SDS011;5180;50.832;5.390;2022-10-15T03:55:10;38.58;;;31.23;;
10269;SDS011;5180;50.832;5.390;2022-10-15T03:57:37;39.13;;;34.30;;
10269;SDS011;5180;50.832;5.390;2022-10-15T04:00:03;36.30;;;30.85;;
10269;SDS011;5180;50.832;5.390;2022-10-15T04:02:30;36.17;;;32.55;;
10269;SDS011;5180;50.832;5.390;2022-10-15T04:04:56;37.55;;;33.45;;
10269;SDS011;5180;50.832;5.390;2022-10-15T04:07:22;35.78;;;31.08;;
10269;SDS011;5180;50.832;5.390;2022-10-15T04:09:48;38.63;;;29.15;;
10269;SDS011;5180;50.832;5.390;2022-10-15T04:12:13;33.95;;;27.98;;
10269;SDS011;5180;50.832;5.390;2022-10-15T04:14:39;37.83;;;32.47;;
10269;SDS011;5180;50.832;5.390;2022-10-15T04:17:05;37.95;;;31.80;;
10269;SDS011;5180;50.832;5.390;2022-10-15T04:19:31;39.13;;;32.88;;
10269;SDS011;5180;50.832;5.390;2022-10-15T04:21:57;37.10;;;29.20;;
10269;SDS011;5180;50.832;5.390;2022-10-15T04:24:23;33.72;;;29.98;;
10269;SDS011;5180;50.832;5.390;2022-10-15T04:26:48;36.40;;;27.63;;
10269;SDS011;5180;50.832;5.390;2022-10-15T04:29:14;34.65;;;26.73;;
10269;SDS011;5180;50.832;5.390;2022-10-15T04:31:40;37.47;;;24.77;;
10269;SDS011;5180;50.832;5.390;2022-10-15T04:34:06;35.72;;;22.52;;
10269;SDS011;5180;50.832;5.390;2022-10-15T04:36:32;38.50;;;27.52;;
10269;SDS011;5180;50.832;5.390;2022-10-15T04:38:58;38.13;;;32.20;;
10269;SDS011;5180;50.832;5.390;2022-10-15T04:41:24;38.95;;;28.75;;
10269;SDS011;5180;50.832;5.390;2022-10-15T04:43:50;36.50;;;27.08;;
10269;SDS011;5180;50.832;5.390;2022-10-15T04:46:16;38.38;;;25.73;;
10269;SDS011;5180;50.832;5.390;2022-10-15T04:48:43;38.08;;;28.08;;
10269;SDS011;5180;50.832;5.390;2022-10-15T04:51:13;34.10;;;25.98;;
10269;SDS011;5180;50.832;5.390;2022-10-15T04:53:41;36.83;;;25.92;;
10269;SDS011;5180;50.832;5.390;2022-10-15T04:56:09;40.35;;;27.92;;
10269;SDS011;5180;50.832;5.390;2022-10-15T04:58:39;38.13;;;28.95;;
10269;SDS011;5180;50.832;5.390;2022-10-15T05:01:06;41.45;;;29.15;;
10269;SDS011;5180;50.832;5.390;2022-10-15T05:03:36;37.80;;;31.45;;
10269;SDS011;5180;50.832;5.390;2022-10-15T05:06:03;39.42;;;26.50;;
10269;SDS011;5180;50.832;5.390;2022-10-15T05:08:32;36.58;;;25.35;;
10269;SDS011;5180;50.832;5.390;2022-10-15T05:10:59;35.40;;;25.50;;
10269;SDS011;5180;50.832;5.390;2022-10-15T05:13:29;35.30;;;24.50;;
10269;SDS011;5180;50.832;5.390;2022-10-15T05:15:55;37.80;;;30.52;;
10269;SDS011;5180;50.832;5.390;2022-10-15T05:18:21;35.13;;;27.77;;
10269;SDS011;5180;50.832;5.390;2022-10-15T05:20:47;37.00;;;27.70;;
10269;SDS011;5180;50.832;5.390;2022-10-15T05:23:13;33.92;;;29.63;;
10269;SDS011;5180;50.832;5.390;2022-10-15T05:25:38;33.50;;;28.33;;
10269;SDS011;5180;50.832;5.390;2022-10-15T05:28:04;35.13;;;31.35;;
10269;SDS011;5180;50.832;5.390;2022-10-15T05:30:30;28.25;;;23.50;;
10269;SDS011;5180;50.832;5.390;2022-10-15T05:32:57;30.50;;;24.67;;
10269;SDS011;5180;50.832;5.390;2022-10-15T05:35:23;24.85;;;21.70;;
10269;SDS011;5180;50.832;5.390;2022-10-15T05:37:48;23.50;;;21.20;;
10269;SDS011;5180;50.832;5.390;2022-10-15T05:40:14;27.70;;;25.02;;
10269;SDS011;5180;50.832;5.390;2022-10-15T05:42:39;24.38;;;21.92;;
10269;SDS011;5180;50.832;5.390;2022-10-15T05:45:05;30.38;;;27.55;;
10269;SDS011;5180;50.832;5.390;2022-10-15T05:47:31;27.67;;;25.40;;
10269;SDS011;5180;50.832;5.390;2022-10-15T05:49:57;28.95;;;26.55;;
10269;SDS011;5180;50.832;5.390;2022-10-15T05:52:22;27.15;;;24.95;;
10269;SDS011;5180;50.832;5.390;2022-10-15T05:54:48;27.67;;;25.23;;
10269;SDS011;5180;50.832;5.390;2022-10-15T05:57:14;27.38;;;25.13;;
10269;SDS011;5180;50.832;5.390;2022-10-15T05:59:39;28.02;;;25.63;;
10269;SDS011;5180;50.832;5.390;2022-10-15T06:02:05;27.25;;;25.08;;
10269;SDS011;5180;50.832;5.390;2022-10-15T06:04:31;27.88;;;25.70;;
10269;SDS011;5180;50.832;5.390;2022-10-15T06:06:57;27.30;;;25.15;;
10269;SDS011;5180;50.832;5.390;2022-10-15T06:09:22;28.75;;;26.50;;
10269;SDS011;5180;50.832;5.390;2022-10-15T06:11:49;24.90;;;23.00;;
10269;SDS011;5180;50.832;5.390;2022-10-15T06:14:15;22.10;;;20.23;;
10269;SDS011;5180;50.832;5.390;2022-10-15T06:16:40;20.02;;;18.42;;
10269;SDS011;5180;50.832;5.390;2022-10-15T06:19:06;19.70;;;18.15;;
10269;SDS011;5180;50.832;5.390;2022-10-15T06:21:31;23.23;;;21.63;;
10269;SDS011;5180;50.832;5.390;2022-10-15T06:23:57;20.52;;;18.83;;
10269;SDS011;5180;50.832;5.390;2022-10-15T06:26:23;21.90;;;20.05;;
10269;SDS011;5180;50.832;5.390;2022-10-15T06:28:48;23.17;;;21.45;;
10269;SDS011;5180;50.832;5.390;2022-10-15T06:31:14;23.50;;;21.85;;
10269;SDS011;5180;50.832;5.390;2022-10-15T06:33:40;16.80;;;15.52;;
10269;SDS011;5180;50.832;5.390;2022-10-15T06:36:06;28.40;;;26.50;;
10269;SDS011;5180;50.832;5.390;2022-10-15T06:38:33;30.85;;;28.88;;
10269;SDS011;5180;50.832;5.390;2022-10-15T06:41:02;30.73;;;28.70;;
10269;SDS011;5180;50.832;5.390;2022-10-15T06:43:29;29.23;;;27.25;;
10269;SDS011;5180;50.832;5.390;2022-10-15T06:45:57;30.70;;;28.80;;
10269;SDS011;5180;50.832;5.390;2022-10-15T06:48:23;30.20;;;28.35;;
10269;SDS011;5180;50.832;5.390;2022-10-15T06:50:49;30.65;;;28.73;;
10269;SDS011;5180;50.832;5.390;2022-10-15T06:53:14;31.05;;;29.02;;
10269;SDS011;5180;50.832;5.390;2022-10-15T06:55:40;27.40;;;25.80;;
10269;SDS011;5180;50.832;5.390;2022-10-15T06:58:06;29.83;;;27.48;;
10269;SDS011;5180;50.832;5.390;2022-10-15T07:00:32;30.63;;;28.63;;
10269;SDS011;5180;50.832;5.390;2022-10-15T07:03:01;30.17;;;28.27;;
10269;SDS011;5180;50.832;5.390;2022-10-15T07:05:31;34.08;;;31.83;;
10269;SDS011;5180;50.832;5.390;2022-10-15T07:07:57;36.65;;;34.22;;
10269;SDS011;5180;50.832;5.390;2022-10-15T07:10:24;28.15;;;26.45;;
10269;SDS011;5180;50.832;5.390;2022-10-15T07:12:51;38.22;;;35.88;;
10269;SDS011;5180;50.832;5.390;2022-10-15T07:15:16;35.42;;;33.25;;
10269;SDS011;5180;50.832;5.390;2022-10-15T07:17:50;30.88;;;28.83;;
10269;SDS011;5180;50.832;5.390;2022-10-15T07:20:17;23.20;;;21.67;;
10269;SDS011;5180;50.832;5.390;2022-10-15T07:22:43;27.23;;;25.48;;
10269;SDS011;5180;50.832;5.390;2022-10-15T07:25:09;24.08;;;22.55;;
10269;SDS011;5180;50.832;5.390;2022-10-15T07:27:35;23.35;;;21.88;;
10269;SDS011;5180;50.832;5.390;2022-10-15T07:30:05;23.88;;;22.38;;
10269;SDS011;5180;50.832;5.390;2022-10-15T07:32:31;24.33;;;22.88;;
10269;SDS011;5180;50.832;5.390;2022-10-15T07:34:57;25.50;;;23.70;;
10269;SDS011;5180;50.832;5.390;2022-10-15T07:37:23;27.30;;;25.67;;
10269;SDS011;5180;50.832;5.390;2022-10-15T07:39:48;24.88;;;23.35;;
10269;SDS011;5180;50.832;5.390;2022-10-15T07:42:14;27.35;;;25.77;;
10269;SDS011;5180;50.832;5.390;2022-10-15T07:44:39;26.33;;;24.77;;
10269;SDS011;5180;50.832;5.390;2022-10-15T07:47:05;29.52;;;27.73;;
10269;SDS011;5180;50.832;5.390;2022-10-15T07:49:31;30.98;;;29.23;;
10269;SDS011;5180;50.832;5.390;2022-10-15T07:51:57;23.85;;;22.52;;
10269;SDS011;5180;50.832;5.390;2022-10-15T07:54:23;25.33;;;23.92;;
10269;SDS011;5180;50.832;5.390;2022-10-15T07:56:48;14.13;;;13.32;;
10269;SDS011;5180;50.832;5.390;2022-10-15T07:59:14;29.20;;;27.60;;
10269;SDS011;5180;50.832;5.390;2022-10-15T08:01:40;28.40;;;26.90;;
10269;SDS011;5180;50.832;5.390;2022-10-15T08:04:05;16.95;;;15.85;;
10269;SDS011;5180;50.832;5.390;2022-10-15T08:06:31;24.23;;;23.00;;
10269;SDS011;5180;50.832;5.390;2022-10-15T08:08:56;11.10;;;10.40;;
10269;SDS011;5180;50.832;5.390;2022-10-15T08:11:22;12.07;;;11.48;;
10269;SDS011;5180;50.832;5.390;2022-10-15T08:13:48;9.88;;;9.38;;
10269;SDS011;5180;50.832;5.390;2022-10-15T08:16:15;15.95;;;15.15;;
10269;SDS011;5180;50.832;5.390;2022-10-15T08:18:43;17.48;;;16.67;;
10269;SDS011;5180;50.832;5.390;2022-10-15T08:21:09;13.10;;;12.40;;
10269;SDS011;5180;50.832;5.390;2022-10-15T08:23:36;28.42;;;27.02;;
10269;SDS011;5180;50.832;5.390;2022-10-15T08:26:02;15.93;;;15.13;;
10269;SDS011;5180;50.832;5.390;2022-10-15T08:28:29;18.95;;;18.05;;
10269;SDS011;5180;50.832;5.390;2022-10-15T08:30:56;11.30;;;10.73;;
10269;SDS011;5180;50.832;5.390;2022-10-15T08:33:23;16.80;;;15.85;;
10269;SDS011;5180;50.832;5.390;2022-10-15T08:35:49;8.73;;;8.32;;
10269;SDS011;5180;50.832;5.390;2022-10-15T08:38:14;11.77;;;11.23;;
10269;SDS011;5180;50.832;5.390;2022-10-15T08:40:44;11.77;;;11.20;;
10269;SDS011;5180;50.832;5.390;2022-10-15T08:43:28;14.45;;;13.75;;
10269;SDS011;5180;50.832;5.390;2022-10-15T08:46:05;15.38;;;14.57;;
10269;SDS011;5180;50.832;5.390;2022-10-15T08:48:46;13.60;;;12.90;;
10269;SDS011;5180;50.832;5.390;2022-10-15T08:51:16;12.00;;;11.43;;
10269;SDS011;5180;50.832;5.390;2022-10-15T08:53:45;9.63;;;9.10;;
10269;SDS011;5180;50.832;5.390;2022-10-15T08:56:16;13.18;;;12.50;;
10269;SDS011;5180;50.832;5.390;2022-10-15T09:01:57;10.15;;;9.63;;
10269;SDS011;5180;50.832;5.390;2022-10-15T09:07:22;33.25;;;31.55;;
10269;SDS011;5180;50.832;5.390;2022-10-15T09:10:38;53.28;;;50.53;;
10269;SDS011;5180;50.832;5.390;2022-10-15T09:13:14;16.38;;;15.20;;
10269;SDS011;5180;50.832;5.390;2022-10-15T09:15:50;17.73;;;16.70;;
10269;SDS011;5180;50.832;5.390;2022-10-15T09:18:35;25.77;;;24.45;;
10269;SDS011;5180;50.832;5.390;2022-10-15T09:21:03;18.45;;;17.55;;
10269;SDS011;5180;50.832;5.390;2022-10-15T09:23:33;6.97;;;6.68;;
10269;SDS011;5180;50.832;5.390;2022-10-15T09:26:05;7.03;;;6.70;;
10269;SDS011;5180;50.832;5.390;2022-10-15T09:28:52;9.63;;;9.02;;
10269;SDS011;5180;50.832;5.390;2022-10-15T09:31:34;9.20;;;8.80;;
10269;SDS011;5180;50.832;5.390;2022-10-15T09:34:13;8.07;;;7.68;;
10269;SDS011;5180;50.832;5.390;2022-10-15T09:36:44;5.30;;;5.05;;
10269;SDS011;5180;50.832;5.390;2022-10-15T09:44:21;14.85;;;14.15;;
10269;SDS011;5180;50.832;5.390;2022-10-15T09:46:49;17.30;;;16.48;;
10269;SDS011;5180;50.832;5.390;2022-10-15T09:49:19;17.70;;;16.85;;
10269;SDS011;5180;50.832;5.390;2022-10-15T09:54:44;15.90;;;15.18;;
10269;SDS011;5180;50.832;5.390;2022-10-15T09:57:13;21.35;;;20.30;;
10269;SDS011;5180;50.832;5.390;2022-10-15T10:00:00;17.85;;;17.05;;
10269;SDS011;5180;50.832;5.390;2022-10-15T10:02:29;10.02;;;9.60;;
10269;SDS011;5180;50.832;5.390;2022-10-15T10:04:55;4.95;;;4.75;;
10269;SDS011;5180;50.832;5.390;2022-10-15T10:10:20;17.02;;;16.10;;
10269;SDS011;5180;50.832;5.390;2022-10-15T10:12:51;23.83;;;22.63;;
10269;SDS011;5180;50.832;5.390;2022-10-15T10:15:28;19.33;;;18.30;;
10269;SDS011;5180;50.832;5.390;2022-10-15T10:17:58;16.95;;;15.95;;
10269;SDS011;5180;50.832;5.390;2022-10-15T10:20:28;15.15;;;14.45;;
10269;SDS011;5180;50.832;5.390;2022-10-15T10:23:01;13.27;;;12.27;;
10269;SDS011;5180;50.832;5.390;2022-10-15T10:25:44;18.98;;;18.05;;
10269;SDS011;5180;50.832;5.390;2022-10-15T10:30:37;11.13;;;10.63;;
10269;SDS011;5180;50.832;5.390;2022-10-15T10:33:19;12.52;;;11.95;;
10269;SDS011;5180;50.832;5.390;2022-10-15T10:35:56;10.70;;;10.20;;
10269;SDS011;5180;50.832;5.390;2022-10-15T10:38:33;10.55;;;9.95;;
10269;SDS011;5180;50.832;5.390;2022-10-15T10:41:04;5.85;;;4.72;;
10269;SDS011;5180;50.832;5.390;2022-10-15T10:43:37;6.50;;;6.10;;
10269;SDS011;5180;50.832;5.390;2022-10-15T10:48:40;8.38;;;8.00;;
10269;SDS011;5180;50.832;5.390;2022-10-15T10:51:12;6.55;;;6.25;;
10269;SDS011;5180;50.832;5.390;2022-10-15T10:53:52;7.40;;;7.10;;
10269;SDS011;5180;50.832;5.390;2022-10-15T10:56:22;8.20;;;7.80;;
10269;SDS011;5180;50.832;5.390;2022-10-15T10:58:54;10.88;;;10.38;;
10269;SDS011;5180;50.832;5.390;2022-10-15T11:01:27;10.35;;;9.85;;
10269;SDS011;5180;50.832;5.390;2022-10-15T11:03:53;11.45;;;10.95;;
10269;SDS011;5180;50.832;5.390;2022-10-15T11:11:49;7.80;;;7.47;;
10269;SDS011;5180;50.832;5.390;2022-10-15T11:20:27;7.72;;;7.38;;
10269;SDS011;5180;50.832;5.390;2022-10-15T11:50:52;3.97;;;3.78;;
10269;SDS011;5180;50.832;5.390;2022-10-15T11:56:10;6.47;;;6.18;;
10269;SDS011;5180;50.832;5.390;2022-10-15T12:04:57;4.60;;;4.40;;
10269;SDS011;5180;50.832;5.390;2022-10-15T12:07:30;4.57;;;4.38;;
10269;SDS011;5180;50.832;5.390;2022-10-15T12:10:07;5.97;;;5.68;;
10269;SDS011;5180;50.832;5.390;2022-10-15T12:15:25;2.50;;;2.35;;
10269;SDS011;5180;50.832;5.390;2022-10-15T12:18:17;2.30;;;2.20;;
10269;SDS011;5180;50.832;5.390;2022-10-15T12:20:49;2.90;;;2.75;;
10269;SDS011;5180;50.832;5.390;2022-10-15T12:23:22;4.18;;;3.97;;
10269;SDS011;5180;50.832;5.390;2022-10-15T12:28:53;2.38;;;2.20;;
10269;SDS011;5180;50.832;5.390;2022-10-15T12:31:20;3.92;;;3.63;;
10269;SDS011;5180;50.832;5.390;2022-10-15T12:33:54;2.85;;;2.75;;
10269;SDS011;5180;50.832;5.390;2022-10-15T12:36:24;3.75;;;3.55;;
10269;SDS011;5180;50.832;5.390;2022-10-15T12:41:20;4.43;;;4.05;;
10269;SDS011;5180;50.832;5.390;2022-10-15T12:44:03;5.55;;;5.25;;
10269;SDS011;5180;50.832;5.390;2022-10-15T12:46:37;4.13;;;3.85;;
10269;SDS011;5180;50.832;5.390;2022-10-15T12:57:53;3.22;;;3.13;;
10269;SDS011;5180;50.832;5.390;2022-10-15T13:02:52;3.60;;;3.38;;
10269;SDS011;5180;50.832;5.390;2022-10-15T13:05:24;5.90;;;4.95;;
10269;SDS011;5180;50.832;5.390;2022-10-15T13:07:50;10.07;;;9.27;;
10269;SDS011;5180;50.832;5.390;2022-10-15T13:10:18;15.52;;;9.23;;
10269;SDS011;5180;50.832;5.390;2022-10-15T13:12:50;8.52;;;7.82;;
10269;SDS011;5180;50.832;5.390;2022-10-15T13:15:19;10.73;;;10.13;;
10269;SDS011;5180;50.832;5.390;2022-10-15T13:17:47;16.27;;;15.50;;
10269;SDS011;5180;50.832;5.390;2022-10-15T13:25:52;18.75;;;17.70;;
10269;SDS011;5180;50.832;5.390;2022-10-15T13:28:35;20.58;;;19.58;;
10269;SDS011;5180;50.832;5.390;2022-10-15T13:31:04;36.10;;;34.20;;
10269;SDS011;5180;50.832;5.390;2022-10-15T13:33:33;27.58;;;26.17;;
10269;SDS011;5180;50.832;5.390;2022-10-15T13:36:04;25.98;;;24.67;;
10269;SDS011;5180;50.832;5.390;2022-10-15T13:38:38;14.95;;;14.15;;
10269;SDS011;5180;50.832;5.390;2022-10-15T13:41:04;15.95;;;15.13;;
10269;SDS011;5180;50.832;5.390;2022-10-15T13:43:31;18.35;;;17.05;;
10269;SDS011;5180;50.832;5.390;2022-10-15T13:45:58;19.75;;;18.58;;
10269;SDS011;5180;50.832;5.390;2022-10-15T13:48:39;18.50;;;17.50;;
10269;SDS011;5180;50.832;5.390;2022-10-15T13:51:06;19.25;;;18.20;;
10269;SDS011;5180;50.832;5.390;2022-10-15T13:53:34;15.85;;;14.95;;
10269;SDS011;5180;50.832;5.390;2022-10-15T13:56:13;13.63;;;12.95;;
10269;SDS011;5180;50.832;5.390;2022-10-15T13:58:41;13.38;;;12.68;;
10269;SDS011;5180;50.832;5.390;2022-10-15T14:01:18;13.00;;;12.40;;
10269;SDS011;5180;50.832;5.390;2022-10-15T14:06:25;14.40;;;13.52;;
10269;SDS011;5180;50.832;5.390;2022-10-15T14:08:54;12.45;;;11.85;;
10269;SDS011;5180;50.832;5.390;2022-10-15T14:11:25;14.73;;;13.93;;
10269;SDS011;5180;50.832;5.390;2022-10-15T14:13:54;14.70;;;13.95;;
10269;SDS011;5180;50.832;5.390;2022-10-15T14:16:28;20.60;;;19.58;;
10269;SDS011;5180;50.832;5.390;2022-10-15T14:21:33;15.30;;;14.18;;
10269;SDS011;5180;50.832;5.390;2022-10-15T14:24:06;14.02;;;13.32;;
10269;SDS011;5180;50.832;5.390;2022-10-15T14:26:39;21.52;;;20.45;;
10269;SDS011;5180;50.832;5.390;2022-10-15T14:29:05;19.30;;;18.38;;
10269;SDS011;5180;50.832;5.390;2022-10-15T14:31:43;17.35;;;16.50;;
10269;SDS011;5180;50.832;5.390;2022-10-15T14:36:54;15.70;;;14.93;;
10269;SDS011;5180;50.832;5.390;2022-10-15T14:39:31;15.55;;;14.65;;
10269;SDS011;5180;50.832;5.390;2022-10-15T14:42:00;21.05;;;19.88;;
10269;SDS011;5180;50.832;5.390;2022-10-15T14:47:34;19.35;;;18.25;;
10269;SDS011;5180;50.832;5.390;2022-10-15T14:49:59;23.92;;;22.75;;
10269;SDS011;5180;50.832;5.390;2022-10-15T14:52:28;28.20;;;26.77;;
10269;SDS011;5180;50.832;5.390;2022-10-15T14:57:30;23.05;;;21.80;;
10269;SDS011;5180;50.832;5.390;2022-10-15T15:00:00;24.73;;;23.50;;
10269;SDS011;5180;50.832;5.390;2022-10-15T15:02:28;25.48;;;24.17;;
10269;SDS011;5180;50.832;5.390;2022-10-15T15:07:32;25.02;;;23.80;;
10269;SDS011;5180;50.832;5.390;2022-10-15T15:09:57;19.98;;;18.98;;
10269;SDS011;5180;50.832;5.390;2022-10-15T15:12:23;13.73;;;13.02;;
10269;SDS011;5180;50.832;5.390;2022-10-15T15:14:51;12.82;;;12.05;;
10269;SDS011;5180;50.832;5.390;2022-10-15T15:17:18;12.63;;;11.90;;
10269;SDS011;5180;50.832;5.390;2022-10-15T15:19:45;14.70;;;14.00;;
10269;SDS011;5180;50.832;5.390;2022-10-15T15:22:12;13.52;;;12.80;;
10269;SDS011;5180;50.832;5.390;2022-10-15T15:24:40;11.88;;;11.23;;
10269;SDS011;5180;50.832;5.390;2022-10-15T15:27:07;13.40;;;12.70;;
10269;SDS011;5180;50.832;5.390;2022-10-15T15:29:44;12.13;;;11.52;;
10269;SDS011;5180;50.832;5.390;2022-10-15T15:32:10;12.07;;;11.38;;
10269;SDS011;5180;50.832;5.390;2022-10-15T15:34:36;13.25;;;12.55;;
10269;SDS011;5180;50.832;5.390;2022-10-15T15:37:09;12.70;;;12.00;;
10269;SDS011;5180;50.832;5.390;2022-10-15T15:39:37;12.75;;;11.98;;
10269;SDS011;5180;50.832;5.390;2022-10-15T15:42:03;13.55;;;12.73;;
10269;SDS011;5180;50.832;5.390;2022-10-15T15:44:28;14.90;;;14.07;;
10269;SDS011;5180;50.832;5.390;2022-10-15T15:46:54;14.25;;;13.45;;
10269;SDS011;5180;50.832;5.390;2022-10-15T15:49:20;14.05;;;13.25;;
10269;SDS011;5180;50.832;5.390;2022-10-15T15:51:45;12.70;;;11.90;;
10269;SDS011;5180;50.832;5.390;2022-10-15T15:54:11;13.80;;;12.88;;
10269;SDS011;5180;50.832;5.390;2022-10-15T15:56:37;11.50;;;10.85;;
10269;SDS011;5180;50.832;5.390;2022-10-15T15:59:04;12.00;;;11.30;;
10269;SDS011;5180;50.832;5.390;2022-10-15T16:01:30;11.65;;;10.85;;
10269;SDS011;5180;50.832;5.390;2022-10-15T16:03:56;11.10;;;10.50;;
10269;SDS011;5180;50.832;5.390;2022-10-15T16:06:21;11.95;;;11.27;;
10269;SDS011;5180;50.832;5.390;2022-10-15T16:08:49;11.02;;;10.07;;
10269;SDS011;5180;50.832;5.390;2022-10-15T16:11:15;10.43;;;9.63;;
10269;SDS011;5180;50.832;5.390;2022-10-15T16:13:41;15.20;;;14.30;;
10269;SDS011;5180;50.832;5.390;2022-10-15T16:16:07;19.52;;;18.48;;
10269;SDS011;5180;50.832;5.390;2022-10-15T16:18:33;17.67;;;16.60;;
10269;SDS011;5180;50.832;5.390;2022-10-15T16:20:59;16.52;;;15.52;;
10269;SDS011;5180;50.832;5.390;2022-10-15T16:23:24;14.48;;;13.43;;
10269;SDS011;5180;50.832;5.390;2022-10-15T16:25:50;15.60;;;14.60;;
10269;SDS011;5180;50.832;5.390;2022-10-15T16:28:17;15.65;;;14.50;;
10269;SDS011;5180;50.832;5.390;2022-10-15T16:30:43;6.45;;;6.00;;
10269;SDS011;5180;50.832;5.390;2022-10-15T16:33:09;8.05;;;7.45;;
10269;SDS011;5180;50.832;5.390;2022-10-15T16:35:34;9.18;;;8.57;;
10269;SDS011;5180;50.832;5.390;2022-10-15T16:38:00;9.15;;;8.40;;
10269;SDS011;5180;50.832;5.390;2022-10-15T16:40:26;8.70;;;8.10;;
10269;SDS011;5180;50.832;5.390;2022-10-15T16:42:51;8.75;;;7.72;;
10269;SDS011;5180;50.832;5.390;2022-10-15T16:45:17;8.40;;;7.85;;
10269;SDS011;5180;50.832;5.390;2022-10-15T16:47:42;8.07;;;7.38;;
10269;SDS011;5180;50.832;5.390;2022-10-15T16:50:08;8.45;;;7.85;;
10269;SDS011;5180;50.832;5.390;2022-10-15T16:52:34;9.77;;;8.90;;
10269;SDS011;5180;50.832;5.390;2022-10-15T16:54:59;8.82;;;8.23;;
10269;SDS011;5180;50.832;5.390;2022-10-15T16:57:25;10.32;;;9.40;;
10269;SDS011;5180;50.832;5.390;2022-10-15T16:59:51;11.80;;;11.00;;
10269;SDS011;5180;50.832;5.390;2022-10-15T17:02:17;10.23;;;9.52;;
10269;SDS011;5180;50.832;5.390;2022-10-15T17:04:42;13.43;;;12.52;;